Time;durP1;ratioP1;P1;durP2;ratioP2;P2;SDS_P1;SDS_P2;PMS_P1;PMS_P2;Temp;Humidity;BMP_temperature;BMP_pressure;BME280_temperature;BME280_humidity;BME280_pressure;Samples;Min_cycle;Max_cycle;Signal;HPM_P1;HPM_P2
2024/02/03 00:01:59;;;;;;;1.10;1.10;;;;;;;-1.30;100.00;99847.34;4985382;28;20118;-88
2024/02/03 00:04:26;;;;;;;1.07;1.07;;;;;;;-1.31;100.00;99849.06;4973104;28;20404;-90
2024/02/03 00:06:51;;;;;;;1.10;1.10;;;;;;;-1.14;100.00;99844.47;4991597;28;20046;-89
2024/02/03 00:09:18;;;;;;;1.10;1.10;;;;;;;-1.04;100.00;99845.47;4945860;28;20067;-88
2024/02/03 00:11:47;;;;;;;1.05;1.05;;;;;;;-0.98;100.00;99831.09;4969195;28;20019;-89
2024/02/03 00:14:12;;;;;;;1.05;1.05;;;;;;;-1.17;100.00;99833.72;4964132;28;20070;-89
2024/02/03 00:16:38;;;;;;;1.10;1.10;;;;;;;-1.26;100.00;99832.84;4983759;28;20034;-89
2024/02/03 00:19:06;;;;;;;1.10;1.10;;;;;;;-1.33;100.00;99836.63;5012240;28;20473;-88
2024/02/03 00:21:31;;;;;;;1.10;1.10;;;;;;;-1.37;100.00;99834.47;4972596;28;20151;-88
2024/02/03 00:23:57;;;;;;;1.20;1.20;;;;;;;-1.62;100.00;99833.91;4983874;28;20123;-88
2024/02/03 00:26:24;;;;;;;1.20;1.20;;;;;;;-1.73;100.00;99831.94;4981401;28;20073;-89
2024/02/03 00:28:51;;;;;;;1.20;1.20;;;;;;;-1.69;100.00;99829.75;4965774;28;20122;-87
2024/02/03 00:31:18;;;;;;;1.10;1.10;;;;;;;-1.80;100.00;99838.31;4965567;28;20042;-88
2024/02/03 00:33:45;;;;;;;1.10;1.10;;;;;;;-1.82;100.00;99835.56;4987912;28;20122;-90
2024/02/03 00:36:22;;;;;;;1.10;1.10;;;;;;;-1.99;100.00;99838.25;4973734;28;20092;-88
2024/02/03 00:38:47;;;;;;;1.20;1.20;;;;;;;-1.95;100.00;99840.38;4975235;28;20088;-88
2024/02/03 00:41:13;;;;;;;1.10;1.10;;;;;;;-1.94;100.00;99842.22;4973051;28;20031;-88
2024/02/03 00:43:38;;;;;;;1.10;1.10;;;;;;;-1.92;100.00;99844.97;4965521;28;20105;-88
2024/02/03 00:46:04;;;;;;;1.10;1.10;;;;;;;-1.68;100.00;99842.06;4945245;28;20057;-89
2024/02/03 00:48:29;;;;;;;1.05;1.05;;;;;;;-1.73;100.00;99845.03;4967497;28;20065;-88
2024/02/03 00:50:55;;;;;;;1.10;1.10;;;;;;;-1.65;100.00;99842.38;4978206;28;20042;-88
2024/02/03 00:53:20;;;;;;;1.20;1.20;;;;;;;-1.68;100.00;99846.38;4980692;28;20023;-89
2024/02/03 00:55:46;;;;;;;1.10;1.10;;;;;;;-1.55;100.00;99844.16;4972878;28;20027;-89
2024/02/03 00:58:11;;;;;;;1.10;1.10;;;;;;;-1.55;100.00;99838.91;4978528;28;20383;-88
2024/02/03 01:00:37;;;;;;;1.10;1.10;;;;;;;-1.71;100.00;99831.31;4974224;28;20038;-88
2024/02/03 01:03:03;;;;;;;1.20;1.20;;;;;;;-1.69;100.00;99837.59;4964698;28;20125;-89
2024/02/03 01:05:29;;;;;;;1.17;1.17;;;;;;;-1.58;100.00;99834.34;4979282;28;20042;-89
2024/02/03 01:07:57;;;;;;;1.10;1.10;;;;;;;-1.63;100.00;99845.09;4960945;28;20453;-89
2024/02/03 01:10:24;;;;;;;1.10;1.10;;;;;;;-1.73;100.00;99842.41;4963651;28;20035;-88
2024/02/03 01:12:50;;;;;;;1.10;1.10;;;;;;;-1.58;100.00;99843.88;4965681;28;20039;-89
2024/02/03 01:15:16;;;;;;;1.10;1.10;;;;;;;-1.40;100.00;99845.56;4968725;28;20061;-89
2024/02/03 01:17:42;;;;;;;1.08;1.08;;;;;;;-1.25;100.00;99848.69;4976951;28;20029;-89
2024/02/03 01:20:08;;;;;;;1.08;1.08;;;;;;;-1.19;100.00;99840.50;4976508;28;20229;-88
2024/02/03 01:22:33;;;;;;;1.10;1.10;;;;;;;-1.06;100.00;99840.84;4980539;28;20034;-89
2024/02/03 01:24:59;;;;;;;1.10;1.10;;;;;;;-1.12;100.00;99840.28;4959755;28;20749;-89
2024/02/03 01:27:24;;;;;;;1.10;1.10;;;;;;;-1.29;100.00;99849.22;4964658;28;20039;-91
2024/02/03 01:29:50;;;;;;;1.10;1.10;;;;;;;-1.42;100.00;99856.69;4964221;28;20117;-89
2024/02/03 01:32:15;;;;;;;1.20;1.20;;;;;;;-1.49;100.00;99857.78;4968371;28;20051;-89
2024/02/03 01:34:41;;;;;;;1.10;1.10;;;;;;;-1.52;100.00;99844.44;4964420;28;20043;-89
2024/02/03 01:37:06;;;;;;;1.10;1.10;;;;;;;-1.64;100.00;99853.75;4978106;28;20039;-89
2024/02/03 01:39:33;;;;;;;1.10;1.10;;;;;;;-1.60;100.00;99841.09;4984615;28;20384;-87
2024/02/03 01:41:59;;;;;;;1.13;1.13;;;;;;;-1.68;100.00;99846.38;4979443;28;20034;-89
2024/02/03 01:44:30;;;;;;;1.10;1.10;;;;;;;-1.65;100.00;99839.75;4969168;28;20045;-89
2024/02/03 01:46:56;;;;;;;1.10;1.10;;;;;;;-1.69;100.00;99841.94;4968298;28;20047;-88
2024/02/03 01:49:22;;;;;;;1.10;1.10;;;;;;;-1.71;100.00;99835.66;4959685;28;20092;-88
2024/02/03 01:51:48;;;;;;;1.20;1.20;;;;;;;-1.69;100.00;99837.59;4964722;28;20761;-89
2024/02/03 01:54:14;;;;;;;1.10;1.10;;;;;;;-1.72;100.00;99837.34;4959697;28;20272;-88
2024/02/03 01:56:41;;;;;;;1.10;1.10;;;;;;;-1.66;100.00;99834.38;4963746;28;20357;-88
2024/02/03 01:59:07;;;;;;;1.00;1.00;;;;;;;-1.68;100.00;99843.75;4967034;28;20404;-89
2024/02/03 02:01:33;;;;;;;1.20;1.20;;;;;;;-1.67;100.00;99833.47;4969588;28;20026;-88
2024/02/03 02:03:59;;;;;;;1.08;1.08;;;;;;;-1.57;100.00;99832.63;4965789;28;20446;-89
2024/02/03 02:06:25;;;;;;;1.10;1.10;;;;;;;-1.45;100.00;99833.75;4961996;28;20031;-89
2024/02/03 02:08:50;;;;;;;1.10;1.10;;;;;;;-1.46;100.00;99829.31;4977639;28;20042;-87
2024/02/03 02:11:18;;;;;;;1.20;1.20;;;;;;;-1.38;100.00;99844.03;4978366;28;20625;-88
2024/02/03 02:13:44;;;;;;;1.10;1.10;;;;;;;-1.47;100.00;99834.41;4975657;28;20023;-87
2024/02/03 02:16:10;;;;;;;1.20;1.20;;;;;;;-1.53;100.00;99834.75;4982753;28;20042;-89
2024/02/03 02:18:35;;;;;;;1.13;1.13;;;;;;;-1.44;100.00;99832.97;4965880;28;20062;-88
2024/02/03 02:21:01;;;;;;;1.10;1.10;;;;;;;-1.44;100.00;99827.75;4966083;28;20042;-88
2024/02/03 02:23:27;;;;;;;1.10;1.10;;;;;;;-1.40;100.00;99831.56;4979015;28;20077;-90
2024/02/03 02:25:52;;;;;;;1.10;1.10;;;;;;;-1.63;100.00;99830.38;4961995;28;20050;-87
2024/02/03 02:28:18;;;;;;;1.20;1.20;;;;;;;-1.62;100.00;99831.28;4978986;28;20035;-87
2024/02/03 02:30:45;;;;;;;1.10;1.10;;;;;;;-1.45;100.00;99831.13;4971050;28;20047;-87
2024/02/03 02:33:12;;;;;;;1.13;1.13;;;;;;;-1.39;100.00;99825.56;4975133;28;20122;-88
2024/02/03 02:35:37;;;;;;;1.20;1.20;;;;;;;-1.20;100.00;99815.09;4969783;28;20043;-91
2024/02/03 02:38:03;;;;;;;1.20;1.20;;;;;;;-1.22;100.00;99827.13;4974301;28;20039;-89
2024/02/03 02:40:29;;;;;;;1.17;1.17;;;;;;;-0.90;100.00;99814.38;4983249;28;20030;-89
2024/02/03 02:42:55;;;;;;;1.10;1.10;;;;;;;-0.87;100.00;99809.41;4971929;28;20453;-89
2024/02/03 02:45:20;;;;;;;1.10;1.10;;;;;;;-0.68;100.00;99805.03;4991407;28;20043;-88
2024/02/03 02:47:46;;;;;;;1.10;1.10;;;;;;;-0.38;100.00;99808.59;4974448;28;20113;-88
2024/02/03 02:50:12;;;;;;;1.20;1.20;;;;;;;-0.43;100.00;99802.94;4981864;28;20472;-89
2024/02/03 02:52:39;;;;;;;1.15;1.15;;;;;;;-0.38;100.00;99808.59;4964212;28;20080;-87
2024/02/03 02:55:05;;;;;;;1.10;1.10;;;;;;;-0.47;100.00;99810.38;4987793;28;20027;-88
2024/02/03 02:57:32;;;;;;;1.15;1.15;;;;;;;-0.46;100.00;99801.72;4981143;28;20031;-89
2024/02/03 02:59:58;;;;;;;1.15;1.15;;;;;;;-0.46;100.00;99807.88;4978116;28;20041;-88
2024/02/03 03:02:24;;;;;;;1.10;1.10;;;;;;;-0.23;100.00;99811.63;4981896;28;20038;-88
2024/02/03 03:04:49;;;;;;;1.00;1.00;;;;;;;-0.31;100.00;99803.09;4973103;28;20187;-90
2024/02/03 03:07:16;;;;;;;1.10;1.10;;;;;;;-0.41;100.00;99809.22;5018785;28;20088;-88
2024/02/03 03:09:42;;;;;;;1.10;1.10;;;;;;;-0.11;100.00;99799.59;4974744;28;20022;-88
2024/02/03 03:12:11;;;;;;;1.10;1.10;;;;;;;-0.09;100.00;99803.28;4982186;28;20033;-89
2024/02/03 03:14:37;;;;;;;1.00;1.00;;;;;;;0.04;100.00;99798.28;4984696;28;20500;-89
2024/02/03 03:17:03;;;;;;;1.08;1.08;;;;;;;0.12;100.00;99798.97;4996313;28;20042;-88
2024/02/03 03:19:35;;;;;;;1.10;1.10;;;;;;;0.04;100.00;99789.50;4981127;28;20034;-88
2024/02/03 03:22:01;;;;;;;1.00;1.00;;;;;;;0.15;100.00;99797.53;4978699;28;20044;-90
2024/02/03 03:24:27;;;;;;;1.00;1.00;;;;;;;0.05;100.00;99796.59;4971362;28;20034;-88
2024/02/03 03:26:54;;;;;;;1.10;1.10;;;;;;;-0.01;100.00;99790.03;4962712;28;20066;-88
2024/02/03 03:29:19;;;;;;;1.10;1.10;;;;;;;-0.12;100.00;99793.44;4967344;28;20264;-90
2024/02/03 03:31:45;;;;;;;1.10;1.10;;;;;;;-0.18;100.00;99798.16;4978299;28;20034;-90
2024/02/03 03:34:10;;;;;;;1.10;1.10;;;;;;;0.13;100.00;99793.84;4988991;28;20042;-88
2024/02/03 03:36:36;;;;;;;1.00;1.00;;;;;;;0.04;100.00;99793.06;4974065;28;20038;-90
2024/02/03 03:39:01;;;;;;;1.10;1.10;;;;;;;-0.07;100.00;99796.44;4988461;28;20164;-88
2024/02/03 03:41:28;;;;;;;1.10;1.10;;;;;;;0.11;100.00;99795.44;4982233;28;20030;-89
2024/02/03 03:43:54;;;;;;;1.10;1.10;;;;;;;-0.02;100.00;99792.53;4978769;28;20042;-89
2024/02/03 03:46:19;;;;;;;1.10;1.10;;;;;;;0.30;100.00;99787.44;4980292;28;20050;-90
2024/02/03 03:48:45;;;;;;;1.00;1.00;;;;;;;0.39;100.00;99784.69;4981385;28;20471;-90
2024/02/03 03:51:10;;;;;;;1.05;1.05;;;;;;;0.47;100.00;99794.13;4977902;28;20168;-87
2024/02/03 03:53:36;;;;;;;1.10;1.10;;;;;;;0.47;100.00;99789.78;4946475;28;20403;-88
2024/02/03 03:56:03;;;;;;;1.10;1.10;;;;;;;0.56;100.00;99789.66;4969074;28;20038;-89
2024/02/03 03:58:29;;;;;;;1.10;1.10;;;;;;;0.44;100.00;99788.63;4976543;28;20042;-88
2024/02/03 04:00:54;;;;;;;1.00;1.00;;;;;;;0.50;100.00;99800.56;4968618;28;20050;-92
2024/02/03 04:03:19;;;;;;;1.00;1.00;;;;;;;0.54;100.00;99799.13;4991983;28;20128;-88
2024/02/03 04:05:45;;;;;;;1.00;1.00;;;;;;;0.53;100.00;99805.19;4977846;28;20030;-90
2024/02/03 04:08:11;;;;;;;1.10;1.10;;;;;;;0.52;100.00;99801.59;4976479;28;20039;-90
2024/02/03 04:10:37;;;;;;;1.10;1.10;;;;;;;0.55;100.00;99807.91;4967028;28;20039;-89
2024/02/03 04:13:03;;;;;;;1.05;1.05;;;;;;;0.67;100.00;99806.31;4989438;28;20480;-88
2024/02/03 04:15:29;;;;;;;1.10;1.10;;;;;;;0.77;100.00;99808.97;4975422;28;20035;-90
2024/02/03 04:17:56;;;;;;;1.10;1.10;;;;;;;0.71;100.00;99806.72;4983028;28;20038;-89
2024/02/03 04:20:26;;;;;;;1.02;1.02;;;;;;;0.71;100.00;99801.47;4966553;28;20058;-90
2024/02/03 04:22:52;;;;;;;1.00;1.00;;;;;;;0.66;100.00;99807.13;4969622;28;20039;-88
2024/02/03 04:25:17;;;;;;;1.10;1.10;;;;;;;0.65;100.00;99815.78;4966586;28;20046;-90
2024/02/03 04:27:44;;;;;;;1.00;1.00;;;;;;;0.66;100.00;99815.00;4964688;28;20031;-88
2024/02/03 04:30:10;;;;;;;1.10;1.10;;;;;;;0.73;100.00;99809.50;4973279;28;20069;-88
2024/02/03 04:32:35;;;;;;;1.10;1.10;;;;;;;0.87;100.00;99808.94;4960269;28;20027;-89
2024/02/03 04:35:01;;;;;;;1.10;1.10;;;;;;;1.09;100.00;99810.72;4948747;28;20488;-92
2024/02/03 04:37:26;;;;;;;1.10;1.10;;;;;;;1.53;100.00;99810.06;4970369;28;20117;-90
2024/02/03 04:39:53;;;;;;;1.10;1.10;;;;;;;1.57;100.00;99805.94;4977172;28;20477;-89
2024/02/03 04:42:19;;;;;;;1.05;1.05;;;;;;;1.69;100.00;99806.97;4967298;28;20075;-90
2024/02/03 04:44:45;;;;;;;1.00;1.00;;;;;;;1.75;100.00;99799.56;4966168;28;20046;-91
2024/02/03 04:47:11;;;;;;;1.10;1.10;;;;;;;1.76;100.00;99806.66;4981383;28;20038;-90
2024/02/03 04:49:36;;;;;;;1.10;1.10;;;;;;;1.80;100.00;99803.47;4980379;28;20044;-91
2024/02/03 04:52:02;;;;;;;1.00;1.00;;;;;;;2.11;100.00;99805.00;4967835;28;20038;-91
2024/02/03 04:54:28;;;;;;;1.10;1.10;;;;;;;2.52;100.00;99801.25;4981789;28;20027;-89
2024/02/03 04:56:55;;;;;;;1.10;1.10;;;;;;;3.43;100.00;99795.88;4970689;28;20043;-88
2024/02/03 04:59:20;;;;;;;1.10;1.10;;;;;;;3.64;100.00;99809.75;4979211;28;20042;-91
2024/02/03 05:01:46;;;;;;;0.90;0.90;;;;;;;4.02;100.00;99799.28;4964691;28;20124;-90
2024/02/03 05:04:11;;;;;;;1.02;1.02;;;;;;;4.46;100.00;99798.00;4957159;28;20064;-89
2024/02/03 05:06:37;;;;;;;1.00;1.00;;;;;;;4.70;100.00;99789.13;4964329;28;20072;-90
2024/02/03 05:09:02;;;;;;;0.90;0.90;;;;;;;4.85;100.00;99790.19;4987155;28;20046;-89
2024/02/03 05:11:28;;;;;;;0.90;0.90;;;;;;;4.88;100.00;99793.00;4967544;28;20086;-89
2024/02/03 05:13:53;;;;;;;1.00;1.00;;;;;;;5.01;99.93;99783.28;4970510;28;20119;-89
2024/02/03 05:16:20;;;;;;;0.90;0.90;;;;;;;5.05;98.95;99788.88;4979802;28;20046;-90
2024/02/03 05:18:47;;;;;;;0.90;0.90;;;;;;;5.20;98.59;99785.44;4968218;28;20033;-89
2024/02/03 05:21:14;;;;;;;1.00;1.00;;;;;;;5.23;97.54;99794.50;4978724;28;20349;-89
2024/02/03 05:23:40;;;;;;;1.00;1.00;;;;;;;5.05;97.02;99791.53;4978040;28;20088;-89
2024/02/03 05:26:05;;;;;;;0.90;0.90;;;;;;;5.01;97.51;99801.78;4962945;28;20051;-91
2024/02/03 05:28:30;;;;;;;0.88;0.88;;;;;;;5.11;97.80;99794.56;4965651;28;20030;-89
2024/02/03 05:30:58;;;;;;;1.00;1.00;;;;;;;5.32;96.83;99800.41;4976254;28;20046;-89
2024/02/03 05:33:24;;;;;;;0.90;0.90;;;;;;;5.34;96.26;99788.19;4971836;28;20142;-91
2024/02/03 05:35:50;;;;;;;0.90;0.90;;;;;;;5.44;95.66;99784.41;4990039;28;20448;-91
2024/02/03 05:38:15;;;;;;;0.85;0.85;;;;;;;5.49;95.23;99795.31;4966363;28;20041;-90
2024/02/03 05:40:42;;;;;;;0.95;0.95;;;;;;;5.46;94.90;99798.69;4974297;28;20104;-89
2024/02/03 05:43:08;;;;;;;0.80;0.80;;;;;;;5.47;95.30;99802.25;5003067;28;20064;-92
2024/02/03 05:45:34;;;;;;;0.90;0.90;;;;;;;5.52;95.40;99803.47;4998340;28;20025;-94
2024/02/03 05:48:00;;;;;;;0.90;0.90;;;;;;;5.48;95.49;99794.41;5004733;28;20053;-93
2024/02/03 05:50:26;;;;;;;0.90;0.90;;;;;;;5.48;95.50;99796.13;4986911;28;20030;-91
2024/02/03 05:52:51;;;;;;;0.93;0.93;;;;;;;5.45;95.41;99794.19;4972436;28;20033;-92
2024/02/03 05:55:17;;;;;;;0.90;0.90;;;;;;;5.53;95.36;99797.34;4981681;28;20042;-90
2024/02/03 05:57:54;;;;;;;0.90;0.90;;;;;;;5.49;95.47;99797.97;4972631;28;20019;-91
2024/02/03 06:00:20;;;;;;;1.00;1.00;;;;;;;5.61;94.87;99798.78;4974347;28;20043;-90
2024/02/03 06:02:46;;;;;;;0.90;0.90;;;;;;;5.55;94.79;99801.91;4978781;28;20053;-90
2024/02/03 06:05:18;;;;;;;0.80;0.80;;;;;;;5.51;95.82;99804.25;4988539;28;20178;-90
2024/02/03 06:07:43;;;;;;;0.90;0.90;;;;;;;5.44;96.00;99802.03;5002762;28;20038;-91
2024/02/03 06:10:09;;;;;;;0.90;0.90;;;;;;;5.63;95.90;99794.50;4974205;28;20039;-91
2024/02/03 06:12:35;;;;;;;0.88;0.88;;;;;;;5.52;95.72;99792.88;4976614;28;20014;-91
2024/02/03 06:15:02;;;;;;;0.90;0.90;;;;;;;5.53;95.85;99794.69;4973934;28;20049;-89
2024/02/03 06:17:27;;;;;;;0.90;0.90;;;;;;;5.42;96.58;99795.75;4972802;28;20039;-90
2024/02/03 06:19:53;;;;;;;0.80;0.80;;;;;;;5.49;96.95;99796.22;4989564;28;20042;-92
2024/02/03 06:22:18;;;;;;;0.90;0.90;;;;;;;5.43;97.02;99786.97;4978139;28;20412;-90
2024/02/03 06:24:44;;;;;;;0.90;0.90;;;;;;;5.40;96.69;99785.94;4974847;28;20054;-91
2024/02/03 06:27:09;;;;;;;0.90;0.90;;;;;;;5.40;96.74;99790.31;4992298;28;20058;-92
2024/02/03 06:29:35;;;;;;;0.90;0.90;;;;;;;5.25;96.92;99779.63;4970892;28;20408;-91
2024/02/03 06:32:00;;;;;;;0.90;0.90;;;;;;;5.16;97.60;99792.25;4977525;28;20039;-91
2024/02/03 06:34:26;;;;;;;0.90;0.90;;;;;;;5.03;97.99;99785.22;4979438;28;20447;-91
2024/02/03 06:36:51;;;;;;;0.90;0.90;;;;;;;5.12;98.04;99790.19;4969317;28;20476;-91
2024/02/03 06:39:18;;;;;;;0.90;0.90;;;;;;;4.97;98.17;99794.47;4974048;28;20035;-90
2024/02/03 06:41:46;;;;;;;0.98;0.98;;;;;;;4.98;98.39;99802.47;4983191;28;20740;-91
2024/02/03 06:44:12;;;;;;;0.90;0.90;;;;;;;4.92;98.42;99804.72;4985512;28;20029;-90
2024/02/03 06:46:38;;;;;;;0.90;0.90;;;;;;;5.01;98.31;99807.09;4987628;28;20043;-90
2024/02/03 06:49:04;;;;;;;0.90;0.90;;;;;;;5.03;98.09;99808.09;4980771;28;20031;-90
2024/02/03 06:51:30;;;;;;;0.90;0.90;;;;;;;4.99;97.84;99809.63;4986042;28;20499;-91
2024/02/03 06:53:55;;;;;;;0.90;0.90;;;;;;;5.04;97.82;99812.59;4978166;28;20532;-89
2024/02/03 06:56:22;;;;;;;0.90;0.90;;;;;;;5.00;98.09;99818.47;4978565;28;20042;-90
2024/02/03 06:58:49;;;;;;;1.00;1.00;;;;;;;4.92;97.86;99824.97;4983487;28;20029;-89
2024/02/03 07:01:15;;;;;;;1.00;1.00;;;;;;;4.86;98.56;99817.53;4982951;28;20031;-89
2024/02/03 07:03:40;;;;;;;0.90;0.90;;;;;;;4.93;98.54;99816.22;4970832;28;20050;-91
2024/02/03 07:06:07;;;;;;;0.90;0.90;;;;;;;4.88;98.18;99808.88;4989646;28;20109;-90
2024/02/03 07:08:32;;;;;;;1.00;1.00;;;;;;;4.89;98.34;99809.81;4986271;28;20176;-90
2024/02/03 07:10:58;;;;;;;0.98;0.98;;;;;;;4.94;98.10;99818.06;4981414;28;20126;-90
2024/02/03 07:13:25;;;;;;;1.00;1.00;;;;;;;4.85;98.20;99816.63;4973434;28;20026;-92
2024/02/03 07:15:51;;;;;;;1.00;1.00;;;;;;;4.87;98.28;99820.28;4982687;28;20104;-91
2024/02/03 07:18:16;;;;;;;0.90;0.90;;;;;;;4.85;98.21;99819.25;4991457;28;20042;-91
2024/02/03 07:20:42;;;;;;;1.00;1.00;;;;;;;4.91;98.43;99817.84;4973917;28;20026;-90
2024/02/03 07:23:07;;;;;;;0.93;0.93;;;;;;;4.92;98.40;99827.59;4979065;28;20065;-90
2024/02/03 07:25:33;;;;;;;0.90;0.90;;;;;;;4.89;98.80;99826.59;4980897;28;20034;-91
2024/02/03 07:27:58;;;;;;;0.90;0.90;;;;;;;4.91;98.81;99824.06;4989109;28;20051;-92
2024/02/03 07:30:24;;;;;;;0.90;0.90;;;;;;;4.86;99.07;99822.81;4993463;28;20041;-90
2024/02/03 07:32:49;;;;;;;1.00;1.00;;;;;;;4.97;99.38;99819.16;4982916;28;20073;-91
2024/02/03 07:35:16;;;;;;;0.90;0.90;;;;;;;5.05;98.99;99830.28;4996925;28;20043;-93
2024/02/03 07:37:41;;;;;;;0.90;0.90;;;;;;;5.08;98.85;99825.22;5005210;28;20076;-92
2024/02/03 07:40:07;;;;;;;0.90;0.90;;;;;;;5.13;98.64;99821.16;5001894;28;20018;-93
2024/02/03 07:42:33;;;;;;;0.90;0.90;;;;;;;5.12;98.69;99825.50;4993832;28;20147;-92
2024/02/03 07:45:00;;;;;;;1.02;1.02;;;;;;;5.13;98.43;99822.06;5005955;28;20038;-91
2024/02/03 07:47:25;;;;;;;1.00;1.00;;;;;;;5.14;98.58;99825.63;4996676;28;20087;-91
2024/02/03 07:49:51;;;;;;;1.00;1.00;;;;;;;5.13;98.69;99823.81;4996108;28;20049;-90
2024/02/03 07:52:18;;;;;;;0.90;0.90;;;;;;;5.16;98.73;99826.63;4995970;28;20088;-90
2024/02/03 07:54:43;;;;;;;1.00;1.00;;;;;;;5.20;99.02;99819.81;4982897;28;20034;-92
2024/02/03 07:57:09;;;;;;;0.90;0.90;;;;;;;5.24;98.78;99829.81;4979960;28;20031;-91
2024/02/03 07:59:34;;;;;;;0.80;0.80;;;;;;;5.34;98.14;99827.88;4987541;28;20066;-91
2024/02/03 08:02:03;;;;;;;1.00;1.00;;;;;;;5.33;98.29;99826.06;4984984;28;20049;-91
2024/02/03 08:04:29;;;;;;;0.93;0.93;;;;;;;5.31;97.86;99819.72;4989918;28;20064;-92
2024/02/03 08:06:55;;;;;;;0.90;0.90;;;;;;;5.36;98.26;99827.97;4985162;28;20035;-91
2024/02/03 08:09:20;;;;;;;1.00;1.00;;;;;;;5.33;97.76;99827.78;4972736;28;20069;-92
2024/02/03 08:11:46;;;;;;;0.90;0.90;;;;;;;5.36;98.07;99834.19;4969717;28;20042;-91
2024/02/03 08:14:13;;;;;;;0.85;0.85;;;;;;;5.39;98.17;99825.53;4978154;28;20041;-90
2024/02/03 08:16:38;;;;;;;0.90;0.90;;;;;;;5.33;98.28;99830.44;4970316;28;20404;-89
2024/02/03 08:19:04;;;;;;;0.93;0.93;;;;;;;5.40;98.17;99837.97;4976933;28;20035;-91
2024/02/03 08:21:30;;;;;;;0.90;0.90;;;;;;;5.38;98.24;99835.22;5000734;28;20399;-91
2024/02/03 08:23:55;;;;;;;0.88;0.88;;;;;;;5.39;98.27;99830.84;4977968;28;20049;-90
2024/02/03 08:26:21;;;;;;;0.90;0.90;;;;;;;5.52;97.92;99828.19;4989435;28;20129;-90
2024/02/03 08:28:46;;;;;;;0.82;0.82;;;;;;;5.46;97.93;99827.81;4976935;28;20065;-92
2024/02/03 08:31:12;;;;;;;0.90;0.90;;;;;;;5.45;98.12;99822.38;4993590;28;20034;-91
2024/02/03 08:33:37;;;;;;;0.90;0.90;;;;;;;5.51;97.79;99834.31;4985606;28;20026;-92
2024/02/03 08:36:03;;;;;;;0.90;0.90;;;;;;;5.59;97.58;99827.78;4982479;28;20045;-92
2024/02/03 08:38:29;;;;;;;0.90;0.90;;;;;;;5.57;97.18;99832.06;4978350;28;20025;-90
2024/02/03 08:40:54;;;;;;;0.90;0.90;;;;;;;5.60;97.25;99828.69;4989440;28;20038;-91
2024/02/03 08:43:20;;;;;;;0.90;0.90;;;;;;;5.63;97.28;99829.81;4974745;28;20063;-91
2024/02/03 08:45:45;;;;;;;0.80;0.80;;;;;;;5.68;97.07;99832.78;4949887;28;20172;-91
2024/02/03 08:48:11;;;;;;;0.90;0.90;;;;;;;5.69;97.09;99834.59;4971002;28;20091;-90
2024/02/03 08:50:36;;;;;;;0.95;0.95;;;;;;;5.61;97.27;99830.56;4976208;28;20031;-91
2024/02/03 08:53:02;;;;;;;0.80;0.80;;;;;;;5.69;96.92;99839.88;4970489;28;20034;-91
2024/02/03 08:55:28;;;;;;;0.90;0.90;;;;;;;5.69;96.85;99834.59;4977200;28;20094;-92
2024/02/03 08:57:55;;;;;;;0.80;0.80;;;;;;;5.68;96.84;99846.00;4969302;28;20046;-92
2024/02/03 09:00:21;;;;;;;0.98;0.98;;;;;;;5.69;96.76;99831.94;4982634;28;20058;-92
2024/02/03 09:02:47;;;;;;;0.90;0.90;;;;;;;5.70;96.52;99831.16;4979987;28;20046;-91
2024/02/03 09:05:12;;;;;;;0.90;0.90;;;;;;;5.64;96.95;99838.66;4963131;28;20031;-91
2024/02/03 09:07:38;;;;;;;0.80;0.80;;;;;;;5.71;96.68;99840.94;4985652;28;20038;-92
2024/02/03 09:10:04;;;;;;;0.80;0.80;;;;;;;5.65;97.09;99829.91;4964360;28;20041;-92
2024/02/03 09:12:29;;;;;;;1.00;1.00;;;;;;;5.68;96.86;99839.78;4997401;28;20061;-94
2024/02/03 09:14:55;;;;;;;0.88;0.88;;;;;;;5.70;97.20;99838.16;4994174;28;20077;-92
2024/02/03 09:17:20;;;;;;;0.80;0.80;;;;;;;5.78;96.79;99831.63;4964908;28;20113;-91
2024/02/03 09:19:46;;;;;;;0.90;0.90;;;;;;;5.73;96.73;99833.97;4983002;28;20113;-91
2024/02/03 09:22:13;;;;;;;0.80;0.80;;;;;;;5.76;96.67;99834.19;4977135;28;20035;-92
2024/02/03 09:24:39;;;;;;;0.90;0.90;;;;;;;5.77;96.57;99841.31;4978319;28;20038;-91
2024/02/03 09:27:05;;;;;;;0.90;0.90;;;;;;;5.76;97.05;99834.19;4978800;28;20039;-91
2024/02/03 09:29:31;;;;;;;0.80;0.80;;;;;;;5.77;96.85;99830.72;4986033;28;20058;-93
2024/02/03 09:31:56;;;;;;;0.90;0.90;;;;;;;5.80;96.83;99836.25;4985026;28;20034;-91
2024/02/03 09:34:22;;;;;;;1.00;1.00;;;;;;;5.80;96.80;99832.69;4979426;28;20135;-90
2024/02/03 09:36:47;;;;;;;0.90;0.90;;;;;;;5.89;96.25;99827.94;4977210;28;20107;-91
2024/02/03 09:39:13;;;;;;;0.80;0.80;;;;;;;5.89;96.60;99825.31;4994723;28;20073;-91
2024/02/03 09:41:39;;;;;;;0.90;0.90;;;;;;;5.91;96.54;99835.22;4980509;28;20038;-91
2024/02/03 09:44:05;;;;;;;0.90;0.90;;;;;;;5.88;96.43;99827.03;4985281;28;20053;-92
2024/02/03 09:46:30;;;;;;;0.90;0.90;;;;;;;5.98;96.44;99833.88;4983747;28;20030;-92
2024/02/03 09:48:59;;;;;;;1.00;1.00;;;;;;;5.95;96.03;99840.75;4976679;28;20050;-93
2024/02/03 09:51:28;;;;;;;0.90;0.90;;;;;;;6.00;95.80;99831.34;5003679;28;20030;-90
2024/02/03 09:53:53;;;;;;;0.80;0.80;;;;;;;6.03;95.95;99832.44;4979655;28;20571;-91
2024/02/03 09:56:20;;;;;;;0.90;0.90;;;;;;;6.09;95.84;99835.50;4978532;28;20416;-91
2024/02/03 09:58:45;;;;;;;1.00;1.00;;;;;;;5.99;95.56;99838.38;4982004;28;20042;-91
2024/02/03 10:01:12;;;;;;;0.85;0.85;;;;;;;6.03;96.21;99834.19;4977347;28;20397;-91
2024/02/03 10:03:41;;;;;;;1.00;1.00;;;;;;;5.99;95.83;99827.78;4982178;28;20170;-92
2024/02/03 10:06:09;;;;;;;0.90;0.90;;;;;;;6.05;95.68;99832.56;4949019;28;20121;-92
2024/02/03 10:08:35;;;;;;;0.90;0.90;;;;;;;6.20;95.37;99838.84;4972155;28;20114;-90
2024/02/03 10:11:01;;;;;;;0.93;0.93;;;;;;;6.38;93.75;99840.00;4978596;28;20042;-92
2024/02/03 10:13:27;;;;;;;0.90;0.90;;;;;;;6.75;91.81;99831.69;4965543;28;20061;-92
2024/02/03 10:16:02;;;;;;;0.90;0.90;;;;;;;7.25;89.20;99833.88;4958921;28;20046;-91
2024/02/03 10:18:31;;;;;;;0.90;0.90;;;;;;;7.20;88.11;99830.94;4963925;28;20075;-91
2024/02/03 10:20:59;;;;;;;0.90;0.90;;;;;;;7.24;88.42;99826.72;4979220;28;20039;-91
2024/02/03 10:23:25;;;;;;;0.90;0.90;;;;;;;7.59;88.27;99822.56;4978730;28;20038;-93
2024/02/03 10:26:02;;;;;;;0.90;0.90;;;;;;;7.69;86.72;99809.00;4975797;28;20650;-93
2024/02/03 10:28:30;;;;;;;0.90;0.90;;;;;;;7.35;86.72;99819.41;4967829;28;20113;-92
2024/02/03 10:31:02;;;;;;;0.90;0.90;;;;;;;7.59;85.65;99825.22;4978157;28;20040;-93
2024/02/03 10:33:28;;;;;;;0.90;0.90;;;;;;;7.50;86.17;99814.97;4965151;28;20042;-93
2024/02/03 10:35:53;;;;;;;0.80;0.80;;;;;;;7.46;85.33;99821.84;4970861;28;20034;-93
2024/02/03 10:38:20;;;;;;;0.90;0.90;;;;;;;7.42;85.96;99819.81;4976105;28;20114;-93
2024/02/03 10:40:46;;;;;;;0.80;0.80;;;;;;;7.24;86.84;99813.47;4965443;28;20058;-94
2024/02/03 10:43:20;;;;;;;0.80;0.80;;;;;;;7.11;87.06;99808.25;4981172;28;20043;-94
2024/02/03 10:45:50;;;;;;;0.80;0.80;;;;;;;7.09;87.98;99808.16;4973203;28;20031;-93
2024/02/03 10:48:19;;;;;;;0.90;0.90;;;;;;;7.03;87.01;99805.09;4986227;28;20091;-94
2024/02/03 10:50:48;;;;;;;0.90;0.90;;;;;;;7.06;87.47;99807.06;4976627;28;20047;-94
2024/02/03 10:53:25;;;;;;;0.80;0.80;;;;;;;7.15;87.39;99799.63;4978617;28;20061;-95
2024/02/03 10:55:55;;;;;;;0.90;0.90;;;;;;;7.06;87.82;99800.00;4980648;28;20038;-94
2024/02/03 10:58:28;;;;;;;0.82;0.82;;;;;;;6.79;88.08;99791.28;4963551;28;20066;-94
2024/02/03 11:00:59;;;;;;;0.90;0.90;;;;;;;6.92;87.49;99798.25;4985030;28;20046;-93
2024/02/03 11:03:36;;;;;;;0.88;0.88;;;;;;;6.98;87.46;99787.09;4982815;28;20027;-92
2024/02/03 11:06:05;;;;;;;0.90;0.90;;;;;;;6.85;87.29;99781.06;4976678;28;20042;-92
2024/02/03 11:08:32;;;;;;;0.77;0.77;;;;;;;6.93;87.88;99794.78;4986924;28;20449;-93
2024/02/03 11:10:57;;;;;;;0.90;0.90;;;;;;;7.03;87.46;99789.19;4978594;28;20145;-92
2024/02/03 11:13:24;;;;;;;0.80;0.80;;;;;;;6.98;87.37;99782.69;4963474;28;20084;-93
2024/02/03 11:15:58;;;;;;;0.80;0.80;;;;;;;6.88;87.57;99783.88;4983211;28;20030;-93
2024/02/03 11:18:24;;;;;;;0.80;0.80;;;;;;;7.08;86.46;99776.19;4975970;28;20389;-92
2024/02/03 11:21:13;;;;;;;0.90;0.90;;;;;;;7.18;86.41;99781.22;4981167;28;20118;-93
2024/02/03 11:23:39;;;;;;;0.80;0.80;;;;;;;7.25;85.61;99775.47;4981138;28;20125;-92
2024/02/03 11:26:07;;;;;;;0.90;0.90;;;;;;;7.23;85.13;99773.53;4980756;28;20038;-93
2024/02/03 11:28:33;;;;;;;0.82;0.82;;;;;;;7.30;84.86;99770.44;4970636;28;20031;-94
2024/02/03 11:31:00;;;;;;;0.90;0.90;;;;;;;7.55;84.04;99763.06;4982152;28;20046;-94
2024/02/03 11:33:26;;;;;;;0.90;0.90;;;;;;;7.74;83.24;99764.09;4970781;28;20022;-93